createdAt,value
2018-11-22T12:17:24.681Z,5.80
2018-11-22T12:19:53.363Z,5.80
2018-11-22T12:22:22.243Z,5.80
2018-11-22T12:25:15.544Z,5.80
2018-11-22T12:27:45.491Z,5.80
2018-11-22T12:30:18.441Z,5.80
2018-11-22T12:32:52.445Z,5.90
2018-11-22T12:35:31.991Z,5.90
2018-11-22T12:38:06.112Z,6.00
2018-11-22T12:40:35.743Z,6.10
2018-11-22T12:43:14.823Z,6.20
2018-11-22T12:45:49.491Z,6.20
2018-11-22T12:48:21.851Z,6.10
2018-11-22T12:50:50.555Z,6.10
2018-11-22T12:53:20.613Z,6.10
2018-11-22T12:55:50.318Z,6.10
2018-11-22T12:58:26.692Z,6.10
2018-11-22T13:00:55.685Z,6.10
2018-11-22T13:03:29.404Z,6.10
2018-11-22T13:06:02.755Z,6.20
2018-11-22T13:08:31.387Z,6.20
2018-11-22T13:11:00.074Z,6.10
2018-11-22T13:13:28.825Z,6.10
2018-11-22T13:15:57.448Z,6.00
2018-11-22T13:18:26.383Z,6.00
2018-11-22T13:20:56.925Z,6.00
2018-11-22T13:23:31.910Z,6.00
2018-11-22T13:26:01.662Z,6.10
2018-11-22T13:28:31.561Z,6.20
2018-11-22T13:31:00.206Z,6.10
2018-11-22T13:33:29.744Z,6.00
2018-11-22T13:35:58.450Z,6.00
2018-11-22T13:38:27.600Z,6.00
2018-11-22T13:40:56.252Z,6.00
2018-11-22T13:43:29.794Z,6.00
2018-11-22T13:45:58.649Z,5.90
2018-11-22T13:48:28.384Z,5.90
2018-11-22T13:50:56.993Z,5.90
2018-11-22T13:53:25.690Z,5.90
2018-11-22T13:55:54.442Z,5.90
2018-11-22T13:58:24.333Z,6.00
2018-11-22T14:00:53.082Z,6.10
2018-11-22T14:03:23.889Z,6.10
2018-11-22T14:05:53.755Z,6.10
2018-11-22T14:08:23.690Z,6.10
2018-11-22T14:10:52.801Z,6.00
2018-11-22T14:13:21.056Z,5.90
2018-11-22T14:15:49.836Z,5.90
2018-11-22T14:18:30.996Z,5.80
2018-11-22T14:21:03.869Z,5.80
2018-11-22T14:23:32.564Z,5.70
2018-11-22T14:26:07.558Z,5.70
2018-11-22T14:28:38.050Z,5.70
2018-11-22T14:31:20.698Z,5.70
2018-11-22T14:33:49.390Z,5.70
2018-11-22T14:36:23.596Z,5.70
2018-11-22T14:38:56.601Z,5.70
2018-11-22T14:41:25.323Z,5.70
2018-11-22T14:43:54.019Z,5.70
2018-11-22T14:46:33.506Z,5.70
2018-11-22T14:49:04.174Z,5.60
2018-11-22T14:51:39.947Z,5.60
2018-11-22T14:54:11.652Z,5.50
2018-11-22T14:56:40.374Z,5.40
2018-11-22T14:59:14.548Z,5.40
2018-11-22T15:01:45.072Z,5.40
2018-11-22T15:04:27.646Z,5.30
2018-11-22T15:06:56.535Z,5.30
2018-11-22T15:09:31.575Z,5.20
2018-11-22T15:12:01.216Z,5.10
2018-11-22T15:14:43.349Z,5.10
2018-11-22T15:17:12.081Z,5.10
2018-11-22T15:19:40.751Z,5.10
2018-11-22T15:22:09.430Z,5.10
2018-11-22T15:24:38.160Z,5.10
2018-11-22T15:27:06.759Z,5.00
2018-11-22T15:29:35.437Z,4.90
2018-11-22T15:32:04.297Z,4.80
2018-11-22T15:34:38.759Z,4.80
2018-11-22T15:37:14.516Z,4.70
2018-11-22T15:39:49.153Z,4.60
2018-11-22T15:42:17.738Z,4.50
2018-11-22T15:44:58.077Z,4.40
2018-11-22T15:47:30.211Z,4.30
2018-11-22T15:50:06.172Z,4.20
2018-11-22T15:52:35.833Z,4.20
2018-11-22T15:55:04.867Z,4.20
2018-11-22T15:57:33.637Z,4.20
2018-11-22T16:00:02.298Z,4.00
2018-11-22T16:02:31.017Z,4.00
2018-11-22T16:05:01.775Z,3.90
2018-11-22T16:07:34.410Z,3.90
2018-11-22T16:10:26.357Z,3.80
2018-11-22T16:12:50.413Z,3.80
2018-11-22T16:15:25.445Z,3.70
2018-11-22T16:17:54.481Z,3.60
2018-11-22T16:20:28.834Z,3.50
2018-11-22T16:22:57.320Z,3.50
2018-11-22T16:25:29.276Z,3.40
2018-11-22T16:28:00.747Z,3.30
2018-11-22T16:30:35.613Z,3.30
2018-11-22T16:33:12.364Z,3.20
2018-11-22T16:35:42.943Z,3.30
2018-11-22T16:38:11.533Z,3.30
2018-11-22T16:40:40.255Z,3.20
2018-11-22T16:43:16.487Z,3.10
2018-11-22T16:45:47.083Z,3.10
2018-11-22T16:48:15.955Z,3.10
2018-11-22T16:50:46.557Z,3.10
2018-11-22T16:53:23.278Z,3.00
2018-11-22T16:55:55.354Z,3.00
2018-11-22T16:58:24.069Z,3.10
2018-11-22T17:00:53.970Z,3.20
2018-11-22T17:03:24.686Z,3.30
2018-11-22T17:05:53.364Z,3.40
2018-11-22T17:08:22.985Z,3.40
2018-11-22T17:13:51.210Z,3.50
2018-11-22T17:16:43.270Z,3.50
2018-11-22T17:19:13.029Z,3.60
2018-11-22T17:21:41.656Z,3.60
2018-11-22T17:24:10.372Z,3.70
2018-11-22T17:26:39.013Z,3.70
2018-11-22T17:29:09.727Z,3.70
2018-11-22T17:31:51.108Z,3.70
2018-11-22T17:34:19.972Z,3.70
2018-11-22T17:37:00.218Z,3.70
2018-11-22T17:39:31.594Z,3.80
2018-11-22T17:42:00.664Z,3.80
2018-11-22T17:44:37.671Z,3.80
2018-11-22T17:47:09.909Z,3.80
2018-11-22T17:49:38.527Z,3.90
2018-11-22T17:52:07.487Z,3.90
2018-11-22T17:54:42.205Z,3.80
2018-11-22T17:57:12.741Z,3.70
2018-11-22T17:59:42.307Z,3.60
2018-11-22T18:02:15.099Z,3.60
2018-11-22T18:04:45.616Z,3.60
2018-11-22T18:07:26.327Z,3.60
2018-11-22T18:09:57.247Z,3.60
2018-11-22T18:12:30.330Z,3.60
2018-11-22T18:14:59.098Z,3.60
2018-11-22T18:17:27.902Z,3.60
2018-11-22T18:19:56.877Z,3.60
2018-11-22T18:22:31.893Z,3.70
2018-11-22T18:25:06.967Z,3.60
2018-11-22T18:27:47.841Z,3.70
2018-11-22T18:30:20.696Z,3.60
2018-11-22T18:32:50.594Z,3.50
2018-11-22T18:35:19.147Z,3.50
2018-11-22T18:37:48.710Z,3.50
2018-11-22T18:40:18.561Z,3.50
2018-11-22T18:42:56.489Z,3.40
2018-11-22T18:45:31.241Z,3.30
2018-11-22T18:48:00.532Z,3.20
2018-11-22T18:50:31.252Z,3.10
2018-11-22T18:53:03.484Z,3.00
2018-11-22T18:55:47.987Z,2.90
2018-11-22T18:58:16.845Z,2.90
2018-11-22T19:00:50.360Z,2.80
2018-11-22T19:03:19.935Z,2.80
2018-11-22T19:05:49.728Z,2.70
2018-11-22T19:08:18.515Z,2.70
2018-11-22T19:10:47.167Z,2.70
2018-11-22T19:13:16.044Z,2.60
2018-11-22T19:15:50.684Z,2.60
2018-11-22T19:18:19.319Z,2.50
2018-11-22T19:20:55.990Z,2.60
2018-11-22T19:23:24.464Z,2.60
2018-11-22T19:25:53.050Z,2.50
2018-11-22T19:28:22.661Z,2.50
2018-11-22T19:30:51.286Z,2.50
2018-11-22T19:33:22.113Z,2.50
2018-11-22T19:35:52.378Z,2.50
2018-11-22T19:38:21.129Z,2.50
2018-11-22T19:40:51.731Z,2.50
2018-11-22T19:43:21.165Z,2.40
2018-11-22T19:46:00.016Z,2.40
2018-11-22T19:48:32.811Z,2.40
2018-11-22T19:51:05.575Z,2.30
2018-11-22T19:53:31.931Z,2.30
2018-11-22T19:56:08.643Z,2.30
2018-11-22T19:58:37.179Z,2.30
2018-11-22T20:01:09.563Z,2.30
2018-11-22T20:03:38.300Z,2.20
2018-11-22T20:06:09.693Z,2.10
2018-11-22T20:08:45.195Z,2.10
2018-11-22T20:11:17.019Z,2.10
2018-11-22T20:13:45.796Z,2.10
2018-11-22T20:16:20.238Z,2.00
2018-11-22T20:18:48.779Z,2.00
2018-11-22T20:21:31.335Z,1.90
2018-11-22T20:24:02.805Z,2.00
2018-11-22T20:26:34.901Z,2.00
2018-11-22T20:29:04.123Z,1.90
2018-11-22T20:31:39.394Z,1.90
2018-11-22T20:34:07.959Z,1.90
2018-11-22T20:36:40.011Z,1.90
2018-11-22T20:39:22.485Z,1.90
2018-11-22T20:41:51.411Z,1.90
2018-11-22T20:44:22.197Z,1.80
2018-11-22T20:46:51.923Z,1.80
2018-11-22T20:49:21.058Z,1.80
2018-11-22T20:51:49.701Z,1.80
2018-11-22T20:54:18.481Z,1.80
2018-11-22T20:56:47.062Z,1.80
2018-11-22T20:59:15.797Z,1.80
2018-11-22T21:01:44.538Z,1.70
2018-11-22T21:04:13.092Z,1.70
2018-11-22T21:06:42.397Z,1.70
2018-11-22T21:09:12.174Z,1.70
2018-11-22T21:11:56.788Z,1.70
2018-11-22T21:14:31.781Z,1.80
2018-11-22T21:17:04.123Z,1.80
2018-11-22T21:19:38.257Z,1.70
2018-11-22T21:22:13.408Z,1.70
2018-11-22T21:24:44.190Z,1.60
2018-11-22T21:27:13.131Z,1.60
2018-11-22T21:29:41.859Z,1.60
2018-11-22T21:32:16.393Z,1.60
2018-11-22T21:34:52.103Z,1.60
2018-11-22T21:37:21.024Z,1.60
2018-11-22T21:39:49.660Z,1.60
2018-11-22T21:42:23.980Z,1.50
2018-11-22T21:44:53.554Z,1.40
2018-11-22T21:47:33.505Z,1.50
2018-11-22T21:50:09.612Z,1.50
2018-11-22T21:52:38.551Z,1.40
2018-11-22T21:55:10.408Z,1.40
2018-11-22T21:57:53.860Z,1.40
2018-11-22T22:00:33.499Z,1.30
2018-11-22T22:03:03.812Z,1.20
2018-11-22T22:05:35.631Z,1.20
2018-11-22T22:08:07.965Z,1.20
2018-11-22T22:10:43.707Z,1.20
2018-11-22T22:13:13.645Z,1.20
2018-11-22T22:15:42.499Z,1.20
2018-11-22T22:18:21.159Z,1.20
2018-11-22T22:20:45.685Z,1.10
2018-11-22T22:23:15.773Z,1.10
2018-11-22T22:25:45.581Z,1.10
2018-11-22T22:28:15.439Z,1.10
2018-11-22T22:30:59.959Z,1.00
2018-11-22T22:33:40.011Z,1.00
2018-11-22T22:36:13.363Z,1.00
2018-11-22T22:38:42.109Z,0.90
2018-11-22T22:41:14.679Z,0.90
2018-11-22T22:44:01.929Z,0.80
2018-11-22T22:46:32.793Z,0.80
2018-11-22T22:49:02.826Z,0.80
2018-11-22T22:51:32.449Z,0.70
2018-11-22T22:54:07.075Z,0.70
2018-11-22T22:56:37.605Z,0.70
2018-11-22T22:59:12.544Z,0.70
2018-11-22T23:01:41.177Z,0.70
2018-11-22T23:04:13.539Z,0.70
2018-11-22T23:06:42.447Z,0.60
2018-11-22T23:09:23.219Z,0.70
2018-11-22T23:11:51.845Z,0.60
2018-11-22T23:14:25.197Z,0.60
2018-11-22T23:16:53.819Z,0.60
2018-11-22T23:19:25.482Z,0.60
2018-11-22T23:21:55.337Z,0.60
2018-11-22T23:24:28.077Z,0.50
2018-11-22T23:26:56.803Z,0.50
2018-11-22T23:29:25.445Z,0.40
2018-11-22T23:31:54.935Z,0.40
2018-11-22T23:34:28.287Z,0.40
2018-11-22T23:37:07.668Z,0.40
2018-11-22T23:39:38.158Z,0.40
2018-11-22T23:42:12.589Z,0.40
2018-11-22T23:44:43.297Z,0.30
2018-11-22T23:47:12.858Z,0.30
2018-11-22T23:49:41.498Z,0.20
2018-11-22T23:52:12.171Z,0.20
2018-11-22T23:54:43.162Z,0.20
2018-11-22T23:57:19.607Z,0.20
2018-11-22T23:59:53.522Z,0.20
